Авиационная погода в Архангельске

Регион: 
Погода METAR: 
ULAA 221800Z 18002MPS 120V220 9999 OVC009 M08/M10 Q1021 R08/590338 NOSIG RMK QFE765/1020
Время наблюдения
2022-01-22T18:00:00Z
Температура C
-8.0
Точка росы
-10.0
Направление ветра
180
Скорость ветра (узлы)
4
Метео видимость
6.21
Облачность
OVC
Нижняя граница облачности (футы)
900
Явления погоды
Условия полета
IFR
Аэропорт подробнее: 
OVC – сплошная облачность;